Saint Anthony, ID (83445)

4:59 AM MDT on April 25, 2017 (GMT -0600)
Fremont County Courthouse | | Change Station

Elev 4972 ft 43.97 °N, 111.68 °W | Updated 60 seconds ago

Rain
Rain
35.6 °F
Feels Like 29 °F
N
9.0
Wind Variable Wind from SSW

Today
High -- | Low -- °F
--% Chance of Precip.
Yesterday
High -- | Low -- °F
Precip. -- in
Pressure 29.68 in
Visibility 10.0 miles
Clouds Mostly Cloudy 1000 ft
Mostly Cloudy 1400 ft
Overcast 2300 ft
Windchill 29 °F
Dew Point 32 °F
Humidity 95%
Rainfall Not available.
Snow Depth Not available.
6:26 AM 8:23 PM
Waning Crescent, 2% visible
METAR KRXE 251053Z AUTO 22010KT 10SM -RA BKN010 BKN014 OVC023 03/02 A2967 RMK AO2 RAB0955 SLP049 P0001 T00280022
Pressure 29.68 in
Visibility 10.0 miles
Clouds Mostly Cloudy 1000 ft
Mostly Cloudy 1400 ft
Overcast 2300 ft
Windchill 29 °F
Dew Point 32 °F
Humidity 95%
Rainfall Not available.
Snow Depth Not available.
6:26 AM 8:23 PM
Waning Crescent, 2% visible
METAR KRXE 251053Z AUTO 22010KT 10SM -RA BKN010 BKN014 OVC023 03/02 A2967 RMK AO2 RAB0955 SLP049 P0001 T00280022

Get Severe Weather Alerts

Thanks for signing up!

Be on the lookout for a verification email in your inbox.

You'll start receiving the daily forecast at 8 AM.

×

10-Day Weather Forecast

Almanac

Astronomy

Apr. 25, 2017 Rise Set
Actual Time
Civil Twilight
Nautical Twilight
Astronomical Twilight
Moon
Length of Visible Light
Length of Day
Tomorrow will be .
, % of the Moon is Illuminated

Today's Extremes

State Highs State Lows

Community

WunderPhotos

WunderBlog® & News

Nearby

Air Quality

  Air Quality AQ Index Pollutant
Not available.

Snow Depth

Station Depth Elevation

Earthquake Activity

City Distance Mag. Time & Date
Minimum magnitude displayed is 2.5.

Coastal Water Temperatures

Place Temperature

Stations

Nearby Weather Stations

Station Location Temp. Windchill Dew Point Humidity Wind Precip. Elev Updated Type
                   

Watches & Warnings

There are currently no watches in effect.